sensor_id;sensor_type;location;lat;lon;timestamp;P1;durP1;ratioP1;P2;durP2;ratioP2
17595;SDS011;8916;47.086;15.920;2023-05-21T00:01:13;16.23;;;11.10;;
17595;SDS011;8916;47.086;15.920;2023-05-21T00:03:42;20.80;;;11.18;;
17595;SDS011;8916;47.086;15.920;2023-05-21T00:06:13;15.65;;;9.90;;
17595;SDS011;8916;47.086;15.920;2023-05-21T00:08:43;18.10;;;10.18;;
17595;SDS011;8916;47.086;15.920;2023-05-21T00:11:13;18.88;;;10.55;;
17595;SDS011;8916;47.086;15.920;2023-05-21T00:13:42;15.52;;;9.68;;
17595;SDS011;8916;47.086;15.920;2023-05-21T00:16:11;18.95;;;10.75;;
17595;SDS011;8916;47.086;15.920;2023-05-21T00:18:40;19.90;;;11.30;;
17595;SDS011;8916;47.086;15.920;2023-05-21T00:21:13;17.77;;;11.23;;
17595;SDS011;8916;47.086;15.920;2023-05-21T00:23:44;17.10;;;10.68;;
17595;SDS011;8916;47.086;15.920;2023-05-21T00:26:14;17.45;;;10.45;;
17595;SDS011;8916;47.086;15.920;2023-05-21T00:28:44;15.02;;;10.70;;
17595;SDS011;8916;47.086;15.920;2023-05-21T00:31:13;16.20;;;10.70;;
17595;SDS011;8916;47.086;15.920;2023-05-21T00:33:43;17.75;;;10.82;;
17595;SDS011;8916;47.086;15.920;2023-05-21T00:36:12;18.73;;;10.60;;
17595;SDS011;8916;47.086;15.920;2023-05-21T00:38:44;19.98;;;10.75;;
17595;SDS011;8916;47.086;15.920;2023-05-21T00:41:13;15.20;;;10.00;;
17595;SDS011;8916;47.086;15.920;2023-05-21T00:43:43;17.00;;;11.10;;
17595;SDS011;8916;47.086;15.920;2023-05-21T00:46:13;19.33;;;12.00;;
17595;SDS011;8916;47.086;15.920;2023-05-21T00:48:46;15.85;;;10.65;;
17595;SDS011;8916;47.086;15.920;2023-05-21T00:51:16;16.35;;;10.93;;
17595;SDS011;8916;47.086;15.920;2023-05-21T00:53:50;16.83;;;10.63;;
17595;SDS011;8916;47.086;15.920;2023-05-21T00:56:19;17.85;;;11.40;;
17595;SDS011;8916;47.086;15.920;2023-05-21T00:58:50;18.58;;;10.48;;
17595;SDS011;8916;47.086;15.920;2023-05-21T01:01:20;15.90;;;10.25;;
17595;SDS011;8916;47.086;15.920;2023-05-21T01:03:52;18.90;;;10.88;;
17595;SDS011;8916;47.086;15.920;2023-05-21T01:06:24;16.45;;;10.70;;
17595;SDS011;8916;47.086;15.920;2023-05-21T01:08:55;21.33;;;11.48;;
17595;SDS011;8916;47.086;15.920;2023-05-21T01:11:28;17.92;;;10.60;;
17595;SDS011;8916;47.086;15.920;2023-05-21T01:14:05;16.15;;;9.70;;
17595;SDS011;8916;47.086;15.920;2023-05-21T01:16:36;16.63;;;11.02;;
17595;SDS011;8916;47.086;15.920;2023-05-21T01:19:08;18.40;;;11.02;;
17595;SDS011;8916;47.086;15.920;2023-05-21T01:21:41;19.27;;;11.00;;
17595;SDS011;8916;47.086;15.920;2023-05-21T01:24:15;16.95;;;10.73;;
17595;SDS011;8916;47.086;15.920;2023-05-21T01:26:44;18.17;;;10.50;;
17595;SDS011;8916;47.086;15.920;2023-05-21T01:29:13;18.00;;;11.45;;
17595;SDS011;8916;47.086;15.920;2023-05-21T01:31:46;19.75;;;11.05;;
17595;SDS011;8916;47.086;15.920;2023-05-21T01:34:28;21.13;;;11.02;;
17595;SDS011;8916;47.086;15.920;2023-05-21T01:37:05;18.95;;;12.10;;
17595;SDS011;8916;47.086;15.920;2023-05-21T01:39:46;15.77;;;10.57;;
17595;SDS011;8916;47.086;15.920;2023-05-21T01:42:23;17.48;;;10.98;;
17595;SDS011;8916;47.086;15.920;2023-05-21T01:44:54;18.00;;;11.15;;
17595;SDS011;8916;47.086;15.920;2023-05-21T01:47:24;19.48;;;11.05;;
17595;SDS011;8916;47.086;15.920;2023-05-21T01:49:57;16.75;;;10.45;;
17595;SDS011;8916;47.086;15.920;2023-05-21T01:52:27;14.50;;;10.57;;
17595;SDS011;8916;47.086;15.920;2023-05-21T01:54:58;20.55;;;12.07;;
17595;SDS011;8916;47.086;15.920;2023-05-21T01:57:28;21.75;;;12.13;;
17595;SDS011;8916;47.086;15.920;2023-05-21T01:59:57;20.17;;;12.15;;
17595;SDS011;8916;47.086;15.920;2023-05-21T02:02:27;21.67;;;11.68;;
17595;SDS011;8916;47.086;15.920;2023-05-21T02:04:56;19.67;;;12.27;;
17595;SDS011;8916;47.086;15.920;2023-05-21T02:07:25;23.02;;;11.93;;
17595;SDS011;8916;47.086;15.920;2023-05-21T02:10:01;17.20;;;11.23;;
17595;SDS011;8916;47.086;15.920;2023-05-21T02:12:31;19.48;;;11.38;;
17595;SDS011;8916;47.086;15.920;2023-05-21T02:15:00;21.00;;;10.85;;
17595;SDS011;8916;47.086;15.920;2023-05-21T02:17:30;18.50;;;10.80;;
17595;SDS011;8916;47.086;15.920;2023-05-21T02:20:00;19.60;;;11.20;;
17595;SDS011;8916;47.086;15.920;2023-05-21T02:22:38;22.85;;;11.70;;
17595;SDS011;8916;47.086;15.920;2023-05-21T02:25:09;15.45;;;9.98;;
17595;SDS011;8916;47.086;15.920;2023-05-21T02:27:40;17.38;;;10.43;;
17595;SDS011;8916;47.086;15.920;2023-05-21T02:30:11;17.40;;;10.27;;
17595;SDS011;8916;47.086;15.920;2023-05-21T02:32:42;18.63;;;11.05;;
17595;SDS011;8916;47.086;15.920;2023-05-21T02:35:12;17.75;;;10.90;;
17595;SDS011;8916;47.086;15.920;2023-05-21T02:37:41;19.52;;;11.45;;
17595;SDS011;8916;47.086;15.920;2023-05-21T02:40:12;20.70;;;11.95;;
17595;SDS011;8916;47.086;15.920;2023-05-21T02:42:41;19.35;;;11.43;;
17595;SDS011;8916;47.086;15.920;2023-05-21T02:45:16;18.95;;;11.52;;
17595;SDS011;8916;47.086;15.920;2023-05-21T02:47:46;19.27;;;11.02;;
17595;SDS011;8916;47.086;15.920;2023-05-21T02:50:17;19.15;;;10.90;;
17595;SDS011;8916;47.086;15.920;2023-05-21T02:52:55;17.90;;;11.80;;
17595;SDS011;8916;47.086;15.920;2023-05-21T02:55:28;20.35;;;12.15;;
17595;SDS011;8916;47.086;15.920;2023-05-21T02:57:57;20.75;;;11.60;;
17595;SDS011;8916;47.086;15.920;2023-05-21T03:00:26;16.35;;;10.48;;
17595;SDS011;8916;47.086;15.920;2023-05-21T03:02:55;21.67;;;11.50;;
17595;SDS011;8916;47.086;15.920;2023-05-21T03:05:25;17.10;;;10.93;;
17595;SDS011;8916;47.086;15.920;2023-05-21T03:07:54;17.55;;;11.18;;
17595;SDS011;8916;47.086;15.920;2023-05-21T03:10:23;20.10;;;12.07;;
17595;SDS011;8916;47.086;15.920;2023-05-21T03:12:54;18.27;;;11.70;;
17595;SDS011;8916;47.086;15.920;2023-05-21T03:15:23;22.25;;;12.00;;
17595;SDS011;8916;47.086;15.920;2023-05-21T03:17:52;18.75;;;11.02;;
17595;SDS011;8916;47.086;15.920;2023-05-21T03:20:22;20.83;;;12.27;;
17595;SDS011;8916;47.086;15.920;2023-05-21T03:22:53;20.13;;;12.23;;
17595;SDS011;8916;47.086;15.920;2023-05-21T03:25:22;20.15;;;10.80;;
17595;SDS011;8916;47.086;15.920;2023-05-21T03:27:54;20.80;;;12.25;;
17595;SDS011;8916;47.086;15.920;2023-05-21T03:30:41;22.15;;;12.23;;
17595;SDS011;8916;47.086;15.920;2023-05-21T03:33:31;20.90;;;12.07;;
17595;SDS011;8916;47.086;15.920;2023-05-21T03:36:07;26.08;;;12.70;;
17595;SDS011;8916;47.086;15.920;2023-05-21T03:38:37;23.92;;;13.75;;
17595;SDS011;8916;47.086;15.920;2023-05-21T03:41:07;24.38;;;14.00;;
17595;SDS011;8916;47.086;15.920;2023-05-21T03:43:38;20.58;;;12.77;;
17595;SDS011;8916;47.086;15.920;2023-05-21T03:46:08;24.25;;;13.85;;
17595;SDS011;8916;47.086;15.920;2023-05-21T03:49:06;20.35;;;12.35;;
17595;SDS011;8916;47.086;15.920;2023-05-21T03:51:37;22.27;;;13.10;;
17595;SDS011;8916;47.086;15.920;2023-05-21T03:54:10;25.60;;;13.88;;
17595;SDS011;8916;47.086;15.920;2023-05-21T03:56:39;20.98;;;12.93;;
17595;SDS011;8916;47.086;15.920;2023-05-21T03:59:10;23.08;;;12.70;;
17595;SDS011;8916;47.086;15.920;2023-05-21T04:01:39;22.63;;;12.82;;
17595;SDS011;8916;47.086;15.920;2023-05-21T04:04:11;24.50;;;12.68;;
17595;SDS011;8916;47.086;15.920;2023-05-21T04:06:41;21.63;;;12.77;;
17595;SDS011;8916;47.086;15.920;2023-05-21T04:09:12;21.30;;;12.07;;
17595;SDS011;8916;47.086;15.920;2023-05-21T04:11:41;21.95;;;12.38;;
17595;SDS011;8916;47.086;15.920;2023-05-21T04:14:11;23.95;;;11.13;;
17595;SDS011;8916;47.086;15.920;2023-05-21T04:16:40;19.40;;;10.88;;
17595;SDS011;8916;47.086;15.920;2023-05-21T04:19:11;19.77;;;11.10;;
17595;SDS011;8916;47.086;15.920;2023-05-21T04:21:40;20.38;;;11.77;;
17595;SDS011;8916;47.086;15.920;2023-05-21T04:24:13;23.40;;;12.18;;
17595;SDS011;8916;47.086;15.920;2023-05-21T04:27:08;19.77;;;11.80;;
17595;SDS011;8916;47.086;15.920;2023-05-21T04:29:38;25.13;;;11.75;;
17595;SDS011;8916;47.086;15.920;2023-05-21T04:32:10;17.75;;;10.80;;
17595;SDS011;8916;47.086;15.920;2023-05-21T04:34:41;19.30;;;11.20;;
17595;SDS011;8916;47.086;15.920;2023-05-21T04:37:11;18.63;;;10.73;;
17595;SDS011;8916;47.086;15.920;2023-05-21T04:39:44;20.65;;;12.00;;
17595;SDS011;8916;47.086;15.920;2023-05-21T04:42:14;18.27;;;10.90;;
17595;SDS011;8916;47.086;15.920;2023-05-21T04:44:47;16.73;;;10.13;;
17595;SDS011;8916;47.086;15.920;2023-05-21T04:47:16;23.55;;;11.50;;
17595;SDS011;8916;47.086;15.920;2023-05-21T04:49:47;16.10;;;9.77;;
17595;SDS011;8916;47.086;15.920;2023-05-21T04:52:17;20.17;;;10.95;;
17595;SDS011;8916;47.086;15.920;2023-05-21T04:54:47;17.20;;;10.25;;
17595;SDS011;8916;47.086;15.920;2023-05-21T04:57:16;17.73;;;10.80;;
17595;SDS011;8916;47.086;15.920;2023-05-21T04:59:47;18.92;;;11.65;;
17595;SDS011;8916;47.086;15.920;2023-05-21T05:02:17;18.17;;;11.27;;
17595;SDS011;8916;47.086;15.920;2023-05-21T05:04:46;17.15;;;11.00;;
17595;SDS011;8916;47.086;15.920;2023-05-21T05:07:16;20.02;;;11.38;;
17595;SDS011;8916;47.086;15.920;2023-05-21T05:09:46;21.30;;;11.73;;
17595;SDS011;8916;47.086;15.920;2023-05-21T05:12:16;15.77;;;9.95;;
17595;SDS011;8916;47.086;15.920;2023-05-21T05:14:45;20.20;;;10.80;;
17595;SDS011;8916;47.086;15.920;2023-05-21T05:17:16;16.17;;;10.50;;
17595;SDS011;8916;47.086;15.920;2023-05-21T05:19:46;18.55;;;11.57;;
17595;SDS011;8916;47.086;15.920;2023-05-21T05:22:15;17.08;;;11.10;;
17595;SDS011;8916;47.086;15.920;2023-05-21T05:24:45;16.10;;;10.27;;
17595;SDS011;8916;47.086;15.920;2023-05-21T05:27:14;18.45;;;11.02;;
17595;SDS011;8916;47.086;15.920;2023-05-21T05:29:44;17.02;;;9.95;;
17595;SDS011;8916;47.086;15.920;2023-05-21T05:32:15;16.67;;;11.05;;
17595;SDS011;8916;47.086;15.920;2023-05-21T05:34:45;17.92;;;10.48;;
17595;SDS011;8916;47.086;15.920;2023-05-21T05:37:14;17.58;;;10.77;;
17595;SDS011;8916;47.086;15.920;2023-05-21T05:39:43;19.23;;;11.63;;
17595;SDS011;8916;47.086;15.920;2023-05-21T05:42:13;17.55;;;9.88;;
17595;SDS011;8916;47.086;15.920;2023-05-21T05:44:42;16.80;;;11.10;;
17595;SDS011;8916;47.086;15.920;2023-05-21T05:47:12;18.38;;;11.35;;
17595;SDS011;8916;47.086;15.920;2023-05-21T05:49:42;16.00;;;10.52;;
17595;SDS011;8916;47.086;15.920;2023-05-21T05:52:12;16.48;;;10.68;;
17595;SDS011;8916;47.086;15.920;2023-05-21T05:54:41;14.52;;;10.25;;
17595;SDS011;8916;47.086;15.920;2023-05-21T05:57:11;17.27;;;11.70;;
17595;SDS011;8916;47.086;15.920;2023-05-21T05:59:40;16.75;;;10.25;;
17595;SDS011;8916;47.086;15.920;2023-05-21T06:02:11;17.90;;;10.98;;
17595;SDS011;8916;47.086;15.920;2023-05-21T06:04:43;15.68;;;9.82;;
17595;SDS011;8916;47.086;15.920;2023-05-21T06:07:13;15.68;;;9.75;;
17595;SDS011;8916;47.086;15.920;2023-05-21T06:09:42;15.63;;;10.50;;
17595;SDS011;8916;47.086;15.920;2023-05-21T06:12:11;16.13;;;9.95;;
17595;SDS011;8916;47.086;15.920;2023-05-21T06:14:42;16.25;;;10.43;;
17595;SDS011;8916;47.086;15.920;2023-05-21T06:17:12;14.32;;;9.20;;
17595;SDS011;8916;47.086;15.920;2023-05-21T06:19:42;17.83;;;9.77;;
17595;SDS011;8916;47.086;15.920;2023-05-21T06:22:12;14.25;;;9.45;;
17595;SDS011;8916;47.086;15.920;2023-05-21T06:24:42;12.63;;;9.23;;
17595;SDS011;8916;47.086;15.920;2023-05-21T06:27:13;17.20;;;9.82;;
17595;SDS011;8916;47.086;15.920;2023-05-21T06:29:43;15.73;;;9.63;;
17595;SDS011;8916;47.086;15.920;2023-05-21T06:32:12;18.38;;;9.57;;
17595;SDS011;8916;47.086;15.920;2023-05-21T06:34:41;15.73;;;9.15;;
17595;SDS011;8916;47.086;15.920;2023-05-21T06:37:12;15.50;;;10.07;;
17595;SDS011;8916;47.086;15.920;2023-05-21T06:39:41;13.98;;;9.50;;
17595;SDS011;8916;47.086;15.920;2023-05-21T06:42:11;16.02;;;9.25;;
17595;SDS011;8916;47.086;15.920;2023-05-21T06:44:51;14.52;;;9.60;;
17595;SDS011;8916;47.086;15.920;2023-05-21T06:47:29;14.07;;;9.27;;
17595;SDS011;8916;47.086;15.920;2023-05-21T06:50:00;14.82;;;9.32;;
17595;SDS011;8916;47.086;15.920;2023-05-21T06:52:29;14.48;;;9.63;;
17595;SDS011;8916;47.086;15.920;2023-05-21T06:55:00;15.55;;;9.52;;
17595;SDS011;8916;47.086;15.920;2023-05-21T06:57:47;14.40;;;8.75;;
17595;SDS011;8916;47.086;15.920;2023-05-21T07:00:17;14.13;;;8.27;;
17595;SDS011;8916;47.086;15.920;2023-05-21T07:02:47;13.88;;;9.45;;
17595;SDS011;8916;47.086;15.920;2023-05-21T07:05:18;14.27;;;8.48;;
17595;SDS011;8916;47.086;15.920;2023-05-21T07:07:47;13.63;;;8.80;;
17595;SDS011;8916;47.086;15.920;2023-05-21T07:10:17;12.77;;;8.27;;
17595;SDS011;8916;47.086;15.920;2023-05-21T07:12:46;13.60;;;8.65;;
17595;SDS011;8916;47.086;15.920;2023-05-21T07:15:16;11.95;;;7.90;;
17595;SDS011;8916;47.086;15.920;2023-05-21T07:22:40;13.60;;;7.57;;
17595;SDS011;8916;47.086;15.920;2023-05-21T07:25:13;9.90;;;7.07;;
17595;SDS011;8916;47.086;15.920;2023-05-21T07:27:43;11.32;;;7.65;;
17595;SDS011;8916;47.086;15.920;2023-05-21T07:31:38;10.85;;;7.30;;
17595;SDS011;8916;47.086;15.920;2023-05-21T07:34:07;14.00;;;8.30;;
17595;SDS011;8916;47.086;15.920;2023-05-21T07:36:38;10.57;;;7.28;;
17595;SDS011;8916;47.086;15.920;2023-05-21T07:39:09;10.82;;;7.50;;
17595;SDS011;8916;47.086;15.920;2023-05-21T07:41:38;11.30;;;7.40;;
17595;SDS011;8916;47.086;15.920;2023-05-21T07:48:42;13.48;;;7.97;;
17595;SDS011;8916;47.086;15.920;2023-05-21T07:51:11;11.15;;;7.55;;
17595;SDS011;8916;47.086;15.920;2023-05-21T07:53:40;9.27;;;6.85;;
17595;SDS011;8916;47.086;15.920;2023-05-21T07:56:13;10.65;;;7.57;;
17595;SDS011;8916;47.086;15.920;2023-05-21T07:58:42;10.23;;;6.93;;
17595;SDS011;8916;47.086;15.920;2023-05-21T08:01:14;9.68;;;7.07;;
17595;SDS011;8916;47.086;15.920;2023-05-21T08:03:43;10.05;;;6.85;;
17595;SDS011;8916;47.086;15.920;2023-05-21T08:06:12;10.45;;;6.75;;
17595;SDS011;8916;47.086;15.920;2023-05-21T08:08:41;12.15;;;6.75;;
17595;SDS011;8916;47.086;15.920;2023-05-21T08:11:10;8.45;;;6.45;;
17595;SDS011;8916;47.086;15.920;2023-05-21T08:13:41;12.13;;;6.50;;
17595;SDS011;8916;47.086;15.920;2023-05-21T08:16:12;8.88;;;6.20;;
17595;SDS011;8916;47.086;15.920;2023-05-21T08:18:41;10.00;;;6.93;;
17595;SDS011;8916;47.086;15.920;2023-05-21T08:21:11;10.98;;;6.90;;
17595;SDS011;8916;47.086;15.920;2023-05-21T08:23:40;9.05;;;6.60;;
17595;SDS011;8916;47.086;15.920;2023-05-21T08:26:09;9.77;;;6.43;;
17595;SDS011;8916;47.086;15.920;2023-05-21T08:28:40;9.80;;;6.72;;
17595;SDS011;8916;47.086;15.920;2023-05-21T08:31:11;8.35;;;6.03;;
17595;SDS011;8916;47.086;15.920;2023-05-21T08:33:47;8.10;;;6.28;;
17595;SDS011;8916;47.086;15.920;2023-05-21T08:36:21;9.57;;;6.55;;
17595;SDS011;8916;47.086;15.920;2023-05-21T08:38:57;9.85;;;6.78;;
17595;SDS011;8916;47.086;15.920;2023-05-21T08:41:36;10.65;;;6.88;;
17595;SDS011;8916;47.086;15.920;2023-05-21T08:44:09;9.50;;;6.95;;
17595;SDS011;8916;47.086;15.920;2023-05-21T08:46:40;11.00;;;7.07;;
17595;SDS011;8916;47.086;15.920;2023-05-21T08:49:12;9.52;;;6.40;;
17595;SDS011;8916;47.086;15.920;2023-05-21T08:51:44;8.68;;;6.35;;
17595;SDS011;8916;47.086;15.920;2023-05-21T08:54:14;8.45;;;6.55;;
17595;SDS011;8916;47.086;15.920;2023-05-21T08:56:44;10.68;;;7.30;;
17595;SDS011;8916;47.086;15.920;2023-05-21T08:59:18;9.60;;;6.85;;
17595;SDS011;8916;47.086;15.920;2023-05-21T09:01:49;9.70;;;7.32;;
17595;SDS011;8916;47.086;15.920;2023-05-21T09:04:25;11.77;;;6.90;;
17595;SDS011;8916;47.086;15.920;2023-05-21T09:06:55;9.57;;;6.93;;
17595;SDS011;8916;47.086;15.920;2023-05-21T09:09:46;9.30;;;7.18;;
17595;SDS011;8916;47.086;15.920;2023-05-21T09:12:22;8.93;;;6.85;;
17595;SDS011;8916;47.086;15.920;2023-05-21T09:14:54;8.95;;;6.75;;
17595;SDS011;8916;47.086;15.920;2023-05-21T09:17:29;9.15;;;6.82;;
17595;SDS011;8916;47.086;15.920;2023-05-21T09:20:08;8.18;;;6.30;;
17595;SDS011;8916;47.086;15.920;2023-05-21T09:22:54;10.87;;;6.33;;
17595;SDS011;8916;47.086;15.920;2023-05-21T09:25:24;10.63;;;6.55;;
17595;SDS011;8916;47.086;15.920;2023-05-21T09:27:59;8.32;;;6.55;;
17595;SDS011;8916;47.086;15.920;2023-05-21T09:30:30;9.05;;;6.55;;
17595;SDS011;8916;47.086;15.920;2023-05-21T09:33:02;7.75;;;5.80;;
17595;SDS011;8916;47.086;15.920;2023-05-21T09:35:32;8.90;;;6.20;;
17595;SDS011;8916;47.086;15.920;2023-05-21T09:38:07;8.40;;;6.13;;
17595;SDS011;8916;47.086;15.920;2023-05-21T09:40:38;9.38;;;6.57;;
17595;SDS011;8916;47.086;15.920;2023-05-21T09:43:14;10.68;;;6.63;;
17595;SDS011;8916;47.086;15.920;2023-05-21T09:45:51;9.00;;;5.90;;
17595;SDS011;8916;47.086;15.920;2023-05-21T09:48:32;8.85;;;6.22;;
17595;SDS011;8916;47.086;15.920;2023-05-21T09:51:09;10.85;;;6.35;;
17595;SDS011;8916;47.086;15.920;2023-05-21T09:53:45;8.45;;;5.88;;
17595;SDS011;8916;47.086;15.920;2023-05-21T09:58:53;8.10;;;6.07;;
17595;SDS011;8916;47.086;15.920;2023-05-21T10:01:24;8.48;;;6.00;;
17595;SDS011;8916;47.086;15.920;2023-05-21T10:03:55;8.45;;;5.72;;
17595;SDS011;8916;47.086;15.920;2023-05-21T10:06:26;7.82;;;6.03;;
17595;SDS011;8916;47.086;15.920;2023-05-21T10:08:58;8.68;;;5.78;;
17595;SDS011;8916;47.086;15.920;2023-05-21T10:11:32;7.05;;;5.22;;
17595;SDS011;8916;47.086;15.920;2023-05-21T10:14:04;7.68;;;6.22;;
17595;SDS011;8916;47.086;15.920;2023-05-21T10:16:36;10.15;;;6.47;;
17595;SDS011;8916;47.086;15.920;2023-05-21T10:19:05;9.23;;;6.13;;
17595;SDS011;8916;47.086;15.920;2023-05-21T10:21:37;7.30;;;5.47;;
17595;SDS011;8916;47.086;15.920;2023-05-21T10:24:07;11.00;;;6.07;;
17595;SDS011;8916;47.086;15.920;2023-05-21T10:26:38;8.38;;;5.55;;
17595;SDS011;8916;47.086;15.920;2023-05-21T10:29:08;8.55;;;6.32;;
17595;SDS011;8916;47.086;15.920;2023-05-21T10:31:39;10.32;;;6.60;;
17595;SDS011;8916;47.086;15.920;2023-05-21T10:34:16;8.32;;;6.47;;
17595;SDS011;8916;47.086;15.920;2023-05-21T10:36:47;7.95;;;5.40;;
17595;SDS011;8916;47.086;15.920;2023-05-21T10:39:18;8.52;;;5.80;;
17595;SDS011;8916;47.086;15.920;2023-05-21T10:41:51;7.65;;;6.40;;
17595;SDS011;8916;47.086;15.920;2023-05-21T10:44:32;7.80;;;5.30;;
17595;SDS011;8916;47.086;15.920;2023-05-21T10:47:25;7.38;;;5.55;;
17595;SDS011;8916;47.086;15.920;2023-05-21T10:50:27;9.13;;;6.07;;
17595;SDS011;8916;47.086;15.920;2023-05-21T10:53:20;8.05;;;6.20;;
17595;SDS011;8916;47.086;15.920;2023-05-21T10:55:58;9.38;;;6.05;;
17595;SDS011;8916;47.086;15.920;2023-05-21T10:58:52;7.78;;;6.18;;
17595;SDS011;8916;47.086;15.920;2023-05-21T11:01:48;9.40;;;5.88;;
17595;SDS011;8916;47.086;15.920;2023-05-21T11:04:26;8.30;;;5.95;;
17595;SDS011;8916;47.086;15.920;2023-05-21T11:06:57;7.57;;;5.70;;
17595;SDS011;8916;47.086;15.920;2023-05-21T11:09:26;9.57;;;6.15;;
17595;SDS011;8916;47.086;15.920;2023-05-21T11:11:56;9.15;;;6.28;;
17595;SDS011;8916;47.086;15.920;2023-05-21T11:14:27;8.25;;;5.70;;
17595;SDS011;8916;47.086;15.920;2023-05-21T11:17:01;8.73;;;5.93;;
17595;SDS011;8916;47.086;15.920;2023-05-21T11:19:37;9.35;;;6.00;;
17595;SDS011;8916;47.086;15.920;2023-05-21T11:22:09;7.38;;;6.20;;
17595;SDS011;8916;47.086;15.920;2023-05-21T11:24:49;8.05;;;5.90;;
17595;SDS011;8916;47.086;15.920;2023-05-21T11:27:29;8.27;;;6.60;;
17595;SDS011;8916;47.086;15.920;2023-05-21T11:30:04;9.00;;;6.65;;
17595;SDS011;8916;47.086;15.920;2023-05-21T11:32:38;8.55;;;6.35;;
17595;SDS011;8916;47.086;15.920;2023-05-21T11:35:29;9.82;;;6.70;;
17595;SDS011;8916;47.086;15.920;2023-05-21T11:37:58;8.00;;;6.10;;
17595;SDS011;8916;47.086;15.920;2023-05-21T11:40:27;7.97;;;6.20;;
17595;SDS011;8916;47.086;15.920;2023-05-21T11:42:57;9.27;;;6.32;;
17595;SDS011;8916;47.086;15.920;2023-05-21T11:45:30;8.48;;;6.40;;
17595;SDS011;8916;47.086;15.920;2023-05-21T11:48:00;8.50;;;6.20;;
17595;SDS011;8916;47.086;15.920;2023-05-21T11:50:32;8.65;;;6.10;;
17595;SDS011;8916;47.086;15.920;2023-05-21T11:53:02;8.57;;;5.63;;
17595;SDS011;8916;47.086;15.920;2023-05-21T11:55:36;7.78;;;6.13;;
17595;SDS011;8916;47.086;15.920;2023-05-21T11:58:06;8.90;;;6.15;;
17595;SDS011;8916;47.086;15.920;2023-05-21T12:00:37;8.38;;;6.55;;
17595;SDS011;8916;47.086;15.920;2023-05-21T12:03:07;8.82;;;6.55;;
17595;SDS011;8916;47.086;15.920;2023-05-21T12:05:49;6.97;;;6.15;;
17595;SDS011;8916;47.086;15.920;2023-05-21T12:08:20;8.13;;;6.00;;
17595;SDS011;8916;47.086;15.920;2023-05-21T12:10:54;8.13;;;6.47;;
17595;SDS011;8916;47.086;15.920;2023-05-21T12:13:26;8.80;;;5.90;;
17595;SDS011;8916;47.086;15.920;2023-05-21T12:15:55;8.38;;;6.32;;
17595;SDS011;8916;47.086;15.920;2023-05-21T12:18:25;9.38;;;6.25;;
17595;SDS011;8916;47.086;15.920;2023-05-21T12:20:55;9.10;;;6.43;;
17595;SDS011;8916;47.086;15.920;2023-05-21T12:23:26;7.25;;;5.78;;
17595;SDS011;8916;47.086;15.920;2023-05-21T12:25:56;7.18;;;5.50;;
17595;SDS011;8916;47.086;15.920;2023-05-21T12:28:26;6.60;;;5.32;;
17595;SDS011;8916;47.086;15.920;2023-05-21T12:30:55;7.68;;;5.80;;
17595;SDS011;8916;47.086;15.920;2023-05-21T12:33:24;8.57;;;6.20;;
17595;SDS011;8916;47.086;15.920;2023-05-21T12:36:01;8.17;;;6.53;;
17595;SDS011;8916;47.086;15.920;2023-05-21T12:38:31;7.68;;;6.05;;
17595;SDS011;8916;47.086;15.920;2023-05-21T12:41:02;8.07;;;5.75;;
17595;SDS011;8916;47.086;15.920;2023-05-21T12:43:32;10.75;;;6.78;;
17595;SDS011;8916;47.086;15.920;2023-05-21T12:46:01;8.32;;;6.20;;
17595;SDS011;8916;47.086;15.920;2023-05-21T12:48:30;7.50;;;5.38;;
17595;SDS011;8916;47.086;15.920;2023-05-21T12:50:59;6.63;;;5.65;;
17595;SDS011;8916;47.086;15.920;2023-05-21T12:53:36;7.47;;;5.65;;
17595;SDS011;8916;47.086;15.920;2023-05-21T12:56:06;8.82;;;5.85;;
17595;SDS011;8916;47.086;15.920;2023-05-21T12:58:37;7.22;;;5.57;;
17595;SDS011;8916;47.086;15.920;2023-05-21T13:01:06;6.60;;;5.55;;
17595;SDS011;8916;47.086;15.920;2023-05-21T13:03:37;5.78;;;5.07;;
17595;SDS011;8916;47.086;15.920;2023-05-21T13:06:08;7.07;;;5.75;;
17595;SDS011;8916;47.086;15.920;2023-05-21T13:08:39;6.85;;;5.60;;
17595;SDS011;8916;47.086;15.920;2023-05-21T13:11:08;6.53;;;5.75;;
17595;SDS011;8916;47.086;15.920;2023-05-21T13:13:37;6.95;;;5.32;;
17595;SDS011;8916;47.086;15.920;2023-05-21T13:16:06;6.65;;;5.53;;
17595;SDS011;8916;47.086;15.920;2023-05-21T13:18:36;7.07;;;6.03;;
17595;SDS011;8916;47.086;15.920;2023-05-21T13:21:05;8.68;;;5.22;;
17595;SDS011;8916;47.086;15.920;2023-05-21T13:23:34;7.25;;;5.70;;
17595;SDS011;8916;47.086;15.920;2023-05-21T13:26:04;6.57;;;5.65;;
17595;SDS011;8916;47.086;15.920;2023-05-21T13:28:33;8.95;;;5.97;;
17595;SDS011;8916;47.086;15.920;2023-05-21T13:31:03;6.75;;;5.28;;
17595;SDS011;8916;47.086;15.920;2023-05-21T13:33:32;7.18;;;5.65;;
17595;SDS011;8916;47.086;15.920;2023-05-21T13:36:02;7.55;;;5.78;;
17595;SDS011;8916;47.086;15.920;2023-05-21T13:38:31;7.63;;;6.10;;
17595;SDS011;8916;47.086;15.920;2023-05-21T13:41:00;8.18;;;5.65;;
17595;SDS011;8916;47.086;15.920;2023-05-21T13:43:31;7.63;;;5.65;;
17595;SDS011;8916;47.086;15.920;2023-05-21T13:46:01;6.95;;;5.78;;
17595;SDS011;8916;47.086;15.920;2023-05-21T13:48:31;8.15;;;5.22;;
17595;SDS011;8916;47.086;15.920;2023-05-21T13:51:00;9.10;;;5.93;;
17595;SDS011;8916;47.086;15.920;2023-05-21T13:53:29;7.90;;;5.95;;
17595;SDS011;8916;47.086;15.920;2023-05-21T13:55:59;7.20;;;5.93;;
17595;SDS011;8916;47.086;15.920;2023-05-21T13:58:28;6.05;;;5.45;;
17595;SDS011;8916;47.086;15.920;2023-05-21T14:01:02;6.60;;;5.28;;
17595;SDS011;8916;47.086;15.920;2023-05-21T14:03:31;7.07;;;5.78;;
17595;SDS011;8916;47.086;15.920;2023-05-21T14:06:00;7.82;;;5.80;;
17595;SDS011;8916;47.086;15.920;2023-05-21T14:08:30;6.25;;;5.13;;
17595;SDS011;8916;47.086;15.920;2023-05-21T14:10:59;6.10;;;5.50;;
17595;SDS011;8916;47.086;15.920;2023-05-21T14:13:31;7.95;;;5.60;;
17595;SDS011;8916;47.086;15.920;2023-05-21T14:16:01;5.45;;;4.95;;
17595;SDS011;8916;47.086;15.920;2023-05-21T14:18:31;5.88;;;5.05;;
17595;SDS011;8916;47.086;15.920;2023-05-21T14:21:00;5.90;;;5.28;;
17595;SDS011;8916;47.086;15.920;2023-05-21T14:23:29;6.35;;;5.60;;
17595;SDS011;8916;47.086;15.920;2023-05-21T14:25:59;6.97;;;4.47;;
17595;SDS011;8916;47.086;15.920;2023-05-21T14:28:28;7.28;;;5.45;;
17595;SDS011;8916;47.086;15.920;2023-05-21T14:30:57;8.20;;;5.20;;
17595;SDS011;8916;47.086;15.920;2023-05-21T14:33:29;6.60;;;5.32;;
17595;SDS011;8916;47.086;15.920;2023-05-21T14:35:59;6.00;;;5.40;;
17595;SDS011;8916;47.086;15.920;2023-05-21T14:38:28;7.85;;;5.03;;
17595;SDS011;8916;47.086;15.920;2023-05-21T14:40:57;6.20;;;5.07;;
17595;SDS011;8916;47.086;15.920;2023-05-21T14:43:26;7.32;;;5.28;;
17595;SDS011;8916;47.086;15.920;2023-05-21T14:45:56;6.18;;;5.57;;
17595;SDS011;8916;47.086;15.920;2023-05-21T14:48:25;6.57;;;5.60;;
17595;SDS011;8916;47.086;15.920;2023-05-21T14:50:55;6.15;;;5.47;;
17595;SDS011;8916;47.086;15.920;2023-05-21T14:53:24;6.18;;;5.25;;
17595;SDS011;8916;47.086;15.920;2023-05-21T14:55:54;7.38;;;5.25;;
17595;SDS011;8916;47.086;15.920;2023-05-21T14:58:23;5.32;;;4.82;;
17595;SDS011;8916;47.086;15.920;2023-05-21T15:00:52;7.63;;;5.40;;
17595;SDS011;8916;47.086;15.920;2023-05-21T15:03:21;5.88;;;4.80;;
17595;SDS011;8916;47.086;15.920;2023-05-21T15:05:50;6.18;;;4.97;;
17595;SDS011;8916;47.086;15.920;2023-05-21T15:08:21;9.10;;;4.97;;
17595;SDS011;8916;47.086;15.920;2023-05-21T15:10:50;5.18;;;4.63;;
17595;SDS011;8916;47.086;15.920;2023-05-21T15:13:19;6.47;;;4.97;;
17595;SDS011;8916;47.086;15.920;2023-05-21T15:15:49;6.30;;;5.15;;